createdAt,value
2023-03-19T00:00:24.525Z,1.92
2023-03-19T00:02:51.150Z,1.92
2023-03-19T00:05:18.269Z,2.28
2023-03-19T00:07:46.089Z,2.45
2023-03-19T00:10:12.627Z,2.28
2023-03-19T00:12:39.432Z,2.63
2023-03-19T00:15:06.980Z,2.70
2023-03-19T00:17:33.520Z,3.15
2023-03-19T00:19:59.983Z,3.30
2023-03-19T00:22:26.470Z,3.70
2023-03-19T00:24:54.271Z,2.85
2023-03-19T00:27:20.765Z,3.33
2023-03-19T00:29:47.214Z,2.75
2023-03-19T00:32:13.714Z,2.80
2023-03-19T00:34:40.303Z,2.90
2023-03-19T00:37:06.812Z,2.78
2023-03-19T00:39:33.313Z,2.60
2023-03-19T00:42:01.541Z,3.42
2023-03-19T00:44:28.001Z,2.67
2023-03-19T00:46:54.476Z,3.55
2023-03-19T00:49:21.178Z,3.25
2023-03-19T00:51:47.803Z,3.13
2023-03-19T00:54:14.360Z,3.17
2023-03-19T00:56:40.865Z,2.95
2023-03-19T00:59:08.781Z,2.65
2023-03-19T01:01:35.392Z,2.47
2023-03-19T01:04:02.007Z,2.83
2023-03-19T01:06:28.576Z,2.80
2023-03-19T01:08:55.075Z,2.78
2023-03-19T01:11:21.565Z,2.90
2023-03-19T01:13:48.216Z,2.50
2023-03-19T01:16:16.016Z,3.00
2023-03-19T01:18:42.569Z,2.45
2023-03-19T01:21:09.053Z,2.55
2023-03-19T01:23:35.560Z,2.45
2023-03-19T01:26:02.045Z,2.13
2023-03-19T01:28:28.729Z,2.33
2023-03-19T01:30:59.022Z,2.35
2023-03-19T01:33:26.911Z,3.33
2023-03-19T01:35:53.497Z,2.40
2023-03-19T01:38:20.020Z,2.38
2023-03-19T01:40:47.627Z,2.03
2023-03-19T01:43:17.426Z,2.58
2023-03-19T01:45:45.353Z,3.33
2023-03-19T01:48:19.688Z,3.05
2023-03-19T01:50:49.279Z,2.40
2023-03-19T01:53:17.846Z,2.58
2023-03-19T01:55:45.821Z,2.60
2023-03-19T01:58:12.378Z,2.70
2023-03-19T02:00:39.031Z,2.45
2023-03-19T02:03:06.400Z,2.72
2023-03-19T02:05:34.459Z,2.83
2023-03-19T02:08:06.038Z,2.40
2023-03-19T02:10:33.757Z,2.72
2023-03-19T02:13:00.499Z,2.55
2023-03-19T02:15:27.034Z,2.40
2023-03-19T02:17:53.710Z,2.67
2023-03-19T02:20:26.513Z,2.58
2023-03-19T02:23:05.396Z,2.37
2023-03-19T02:25:39.456Z,2.42
2023-03-19T02:28:08.203Z,2.47
2023-03-19T02:30:35.074Z,3.08
2023-03-19T02:33:01.847Z,2.42
2023-03-19T02:35:31.707Z,3.25
2023-03-19T02:37:58.261Z,1.70
2023-03-19T02:40:29.315Z,2.33
2023-03-19T02:42:55.799Z,2.50
2023-03-19T02:45:28.813Z,3.05
2023-03-19T02:47:55.693Z,2.85
2023-03-19T02:50:22.262Z,2.70
2023-03-19T02:52:48.934Z,2.25
2023-03-19T02:55:15.504Z,2.30
2023-03-19T02:57:41.999Z,2.65
2023-03-19T03:00:09.951Z,2.15
2023-03-19T03:02:38.242Z,2.30
2023-03-19T03:05:05.344Z,2.42
2023-03-19T03:07:32.475Z,2.30
2023-03-19T03:09:59.089Z,2.50
2023-03-19T03:12:25.609Z,2.42
2023-03-19T03:14:52.089Z,3.22
2023-03-19T03:17:18.639Z,2.65
2023-03-19T03:19:46.519Z,2.60
2023-03-19T03:22:13.021Z,2.55
2023-03-19T03:24:39.524Z,3.00
2023-03-19T03:27:06.133Z,2.33
2023-03-19T03:29:32.598Z,2.67
2023-03-19T03:31:59.117Z,2.47
2023-03-19T03:34:25.700Z,2.80
2023-03-19T03:36:53.676Z,2.35
2023-03-19T03:39:20.187Z,2.63
2023-03-19T03:41:46.713Z,2.08
2023-03-19T03:44:13.247Z,2.47
2023-03-19T03:46:39.853Z,2.53
2023-03-19T03:49:06.362Z,2.70
2023-03-19T03:51:32.826Z,2.85
2023-03-19T03:54:00.781Z,3.03
2023-03-19T03:56:27.255Z,3.22
2023-03-19T03:58:53.818Z,2.50
2023-03-19T04:01:20.468Z,2.95
2023-03-19T04:03:47.008Z,2.92
2023-03-19T04:06:15.696Z,3.22
2023-03-19T04:08:42.235Z,3.42
2023-03-19T04:11:10.620Z,3.15
2023-03-19T04:13:37.190Z,3.97
2023-03-19T04:16:04.020Z,3.60
2023-03-19T04:18:30.580Z,3.40
2023-03-19T04:20:57.227Z,3.47
2023-03-19T04:23:23.711Z,3.88
2023-03-19T04:25:50.333Z,3.90
2023-03-19T04:28:18.250Z,3.63
2023-03-19T04:30:44.732Z,3.95
2023-03-19T04:33:11.434Z,4.30
2023-03-19T04:35:37.981Z,4.28
2023-03-19T04:38:04.467Z,4.50
2023-03-19T04:40:31.072Z,4.20
2023-03-19T04:42:57.579Z,4.28
2023-03-19T04:45:25.477Z,4.20
2023-03-19T04:47:51.956Z,4.68
2023-03-19T04:50:18.611Z,4.82
2023-03-19T04:52:45.102Z,4.65
2023-03-19T04:55:11.620Z,4.55
2023-03-19T04:57:38.113Z,4.68
2023-03-19T05:00:05.298Z,5.57
2023-03-19T05:02:33.149Z,4.60
2023-03-19T05:04:59.718Z,5.43
2023-03-19T05:07:26.219Z,4.60
2023-03-19T05:09:52.762Z,5.15
2023-03-19T05:12:19.233Z,4.93
2023-03-19T05:14:45.704Z,5.60
2023-03-19T05:17:12.230Z,5.97
2023-03-19T05:19:40.063Z,5.50
2023-03-19T05:22:06.548Z,5.28
2023-03-19T05:24:33.007Z,5.60
2023-03-19T05:26:59.473Z,6.32
2023-03-19T05:29:26.019Z,6.18
2023-03-19T05:31:52.565Z,5.85
2023-03-19T05:34:19.086Z,5.72
2023-03-19T05:36:46.930Z,6.20
2023-03-19T05:39:13.417Z,5.75
2023-03-19T05:41:39.897Z,6.22
2023-03-19T05:44:06.454Z,5.97
2023-03-19T05:46:32.973Z,5.72
2023-03-19T05:48:59.468Z,6.40
2023-03-19T05:51:25.983Z,5.38
2023-03-19T05:53:53.809Z,6.00
2023-03-19T05:56:20.467Z,6.38
2023-03-19T05:58:47.024Z,7.22
2023-03-19T06:01:13.647Z,6.20
2023-03-19T06:03:40.160Z,6.03
2023-03-19T06:06:07.079Z,5.53
2023-03-19T06:08:33.663Z,6.18
2023-03-19T06:11:01.499Z,6.32
2023-03-19T06:13:27.968Z,5.95
2023-03-19T06:15:54.449Z,6.82
2023-03-19T06:18:20.980Z,6.60
2023-03-19T06:20:47.845Z,6.00
2023-03-19T06:23:16.261Z,6.90
2023-03-19T06:25:43.028Z,7.43
2023-03-19T06:28:10.852Z,6.88
2023-03-19T06:30:37.440Z,6.85
2023-03-19T06:33:04.151Z,7.10
2023-03-19T06:35:30.788Z,7.15
2023-03-19T06:37:57.330Z,7.32
2023-03-19T06:40:23.805Z,8.27
2023-03-19T06:42:50.340Z,7.05
2023-03-19T06:45:18.154Z,7.75
2023-03-19T06:47:45.636Z,8.18
2023-03-19T06:50:12.349Z,7.32
2023-03-19T06:52:39.041Z,7.90
2023-03-19T06:55:06.319Z,8.85
2023-03-19T06:57:32.788Z,7.20
2023-03-19T06:59:59.279Z,8.15
2023-03-19T07:02:27.278Z,7.63
2023-03-19T07:04:53.787Z,8.00
2023-03-19T07:07:20.274Z,8.18
2023-03-19T07:09:46.971Z,8.40
2023-03-19T07:12:13.649Z,8.38
2023-03-19T07:14:40.090Z,8.23
2023-03-19T07:17:09.071Z,8.20
2023-03-19T07:19:38.036Z,7.50
2023-03-19T07:22:04.678Z,8.25
2023-03-19T07:24:31.153Z,8.50
2023-03-19T07:26:57.626Z,7.47
2023-03-19T07:29:24.114Z,7.10
2023-03-19T07:31:50.590Z,7.60
2023-03-19T07:34:17.155Z,9.32
2023-03-19T07:36:45.061Z,8.77
2023-03-19T07:39:11.544Z,8.98
2023-03-19T07:41:37.998Z,9.13
2023-03-19T07:44:04.567Z,9.20
2023-03-19T07:46:31.062Z,9.48
2023-03-19T07:48:57.584Z,9.27
2023-03-19T07:51:24.072Z,9.43
2023-03-19T07:53:51.881Z,9.55
2023-03-19T07:56:18.353Z,9.80
2023-03-19T07:58:44.878Z,9.27
2023-03-19T08:01:11.359Z,9.70
2023-03-19T08:03:38.166Z,9.57
2023-03-19T08:06:05.254Z,9.40
2023-03-19T08:08:31.813Z,9.38
2023-03-19T08:10:59.622Z,9.40
2023-03-19T08:13:26.197Z,9.00
2023-03-19T08:15:52.723Z,8.93
2023-03-19T08:18:19.791Z,9.15
2023-03-19T08:20:46.728Z,9.98
2023-03-19T08:23:13.748Z,8.85
2023-03-19T08:25:40.513Z,8.60
2023-03-19T08:28:08.585Z,8.98
2023-03-19T08:30:35.886Z,7.57
2023-03-19T08:33:02.965Z,7.55
2023-03-19T08:35:29.874Z,7.47
2023-03-19T08:37:56.824Z,7.50
2023-03-19T08:40:23.650Z,7.72
2023-03-19T08:42:50.208Z,7.13
2023-03-19T08:45:18.864Z,6.55
2023-03-19T08:47:45.713Z,6.65
2023-03-19T08:50:12.276Z,6.00
2023-03-19T08:52:39.254Z,6.22
2023-03-19T08:55:06.411Z,6.10
2023-03-19T08:57:33.097Z,6.15
2023-03-19T08:59:59.573Z,4.78
2023-03-19T09:02:27.587Z,5.07
2023-03-19T09:04:54.092Z,4.90
2023-03-19T09:07:20.828Z,4.43
2023-03-19T09:09:47.298Z,5.18
2023-03-19T09:12:15.680Z,4.25
2023-03-19T09:14:42.998Z,4.35
2023-03-19T09:17:10.810Z,3.92
2023-03-19T09:19:38.953Z,3.53
2023-03-19T09:22:05.613Z,2.70
2023-03-19T09:24:32.121Z,2.75
2023-03-19T09:26:58.625Z,2.50
2023-03-19T09:29:25.130Z,2.38
2023-03-19T09:31:51.617Z,2.90
2023-03-19T09:34:18.110Z,2.42
2023-03-19T09:36:45.894Z,2.42
2023-03-19T09:39:12.435Z,3.35
2023-03-19T09:41:54.183Z,2.40
2023-03-19T09:44:27.726Z,2.15
2023-03-19T09:49:25.931Z,2.20
2023-03-19T09:51:56.501Z,2.00
2023-03-19T09:54:28.019Z,2.20
2023-03-19T09:56:55.563Z,1.90
2023-03-19T09:59:24.872Z,2.53
2023-03-19T10:01:58.884Z,1.77
2023-03-19T10:04:41.980Z,2.38
2023-03-19T10:07:24.302Z,2.65
2023-03-19T10:10:03.128Z,1.92
2023-03-19T10:12:45.021Z,1.63
2023-03-19T10:15:18.329Z,2.05
2023-03-19T10:17:54.023Z,3.30
2023-03-19T10:20:30.520Z,2.33
2023-03-19T10:23:08.710Z,2.63
2023-03-19T10:25:41.411Z,1.70
2023-03-19T10:28:14.839Z,1.45
2023-03-19T10:30:41.824Z,2.28
2023-03-19T10:33:20.978Z,1.38
2023-03-19T10:35:50.889Z,1.23
2023-03-19T10:38:20.548Z,2.20
2023-03-19T10:41:01.596Z,1.55
2023-03-19T10:43:29.871Z,1.67
2023-03-19T10:45:57.225Z,1.13
2023-03-19T10:48:27.671Z,1.40
2023-03-19T10:50:58.786Z,1.95
2023-03-19T10:53:32.753Z,1.23
2023-03-19T10:56:03.286Z,1.00
2023-03-19T10:58:32.045Z,1.65
2023-03-19T11:01:03.674Z,1.30
2023-03-19T11:03:32.313Z,1.58
2023-03-19T11:06:15.914Z,1.23
2023-03-19T11:08:51.971Z,1.17
2023-03-19T11:11:26.666Z,1.58
2023-03-19T11:13:53.310Z,1.67
2023-03-19T11:16:19.903Z,1.00
2023-03-19T11:18:48.385Z,1.58
2023-03-19T11:21:23.393Z,1.25
2023-03-19T11:23:58.582Z,1.35
2023-03-19T11:26:25.090Z,1.27
2023-03-19T11:28:52.044Z,1.15
2023-03-19T11:31:24.045Z,1.30
2023-03-19T11:34:02.816Z,1.30
2023-03-19T11:36:33.535Z,1.58
2023-03-19T11:39:17.709Z,1.48
2023-03-19T11:42:02.134Z,1.40
2023-03-19T11:44:32.680Z,1.80
2023-03-19T11:47:17.823Z,1.58
2023-03-19T11:50:14.516Z,1.60
2023-03-19T11:52:53.229Z,1.33
2023-03-19T11:55:25.988Z,1.40
2023-03-19T11:58:03.604Z,1.17
2023-03-19T12:00:35.951Z,1.33
2023-03-19T12:03:32.340Z,1.40
2023-03-19T12:06:00.956Z,1.55
2023-03-19T12:08:37.754Z,0.85
2023-03-19T12:11:19.205Z,2.03
2023-03-19T12:14:01.464Z,1.80
2023-03-19T12:16:44.124Z,1.88
2023-03-19T12:19:33.401Z,1.75
2023-03-19T12:22:12.173Z,1.50
2023-03-19T12:24:54.731Z,1.50
2023-03-19T12:27:31.191Z,1.67
2023-03-19T12:30:02.139Z,1.17
2023-03-19T12:32:48.833Z,1.27
2023-03-19T12:35:18.628Z,1.23
2023-03-19T12:37:58.357Z,1.10
2023-03-19T12:40:29.442Z,1.30
2023-03-19T12:42:59.584Z,1.80
2023-03-19T12:45:31.120Z,1.70
2023-03-19T12:48:05.866Z,1.35
2023-03-19T12:50:36.417Z,1.48
2023-03-19T12:53:09.173Z,1.73
2023-03-19T12:55:40.275Z,1.90
2023-03-19T12:58:18.347Z,1.30
2023-03-19T13:00:52.440Z,1.40
2023-03-19T13:03:24.911Z,1.33
2023-03-19T13:05:58.234Z,1.02
2023-03-19T13:08:31.817Z,1.15
2023-03-19T13:13:38.474Z,1.52
2023-03-19T13:16:13.914Z,1.80
2023-03-19T13:18:49.592Z,1.80
2023-03-19T13:21:24.007Z,1.95
2023-03-19T13:24:07.038Z,1.40
2023-03-19T13:26:34.428Z,1.77
2023-03-19T13:29:08.955Z,1.48
2023-03-19T13:31:37.625Z,1.58
2023-03-19T13:34:06.235Z,1.38
2023-03-19T13:36:37.519Z,1.60
2023-03-19T13:39:11.376Z,1.83
2023-03-19T13:42:06.310Z,1.75
2023-03-19T13:44:39.099Z,2.65
2023-03-19T13:47:39.565Z,2.15
2023-03-19T13:50:28.533Z,2.05
2023-03-19T13:53:19.455Z,2.03
2023-03-19T13:55:51.816Z,2.10
2023-03-19T13:58:21.433Z,2.00
2023-03-19T14:00:59.842Z,2.17
2023-03-19T14:03:29.890Z,1.95
2023-03-19T14:05:57.828Z,2.55
2023-03-19T14:08:26.888Z,2.40
2023-03-19T14:10:55.860Z,2.20
2023-03-19T14:13:30.929Z,2.80
2023-03-19T14:16:06.953Z,2.33
2023-03-19T14:18:38.240Z,3.05
2023-03-19T14:21:08.803Z,3.28
2023-03-19T14:23:44.096Z,3.45
2023-03-19T14:26:16.983Z,4.55
2023-03-19T14:28:51.972Z,3.97
2023-03-19T14:31:25.927Z,4.22
2023-03-19T14:33:59.452Z,4.50
2023-03-19T14:38:56.837Z,5.30
2023-03-19T14:41:27.266Z,5.10
2023-03-19T14:44:12.438Z,6.63
2023-03-19T14:46:53.467Z,5.55
2023-03-19T14:49:48.915Z,5.97
2023-03-19T14:52:19.061Z,8.20
2023-03-19T14:54:51.028Z,7.90
2023-03-19T14:57:19.295Z,7.25
2023-03-19T14:59:46.166Z,7.18
2023-03-19T15:02:27.463Z,5.93
2023-03-19T15:04:55.140Z,6.30
2023-03-19T15:07:28.599Z,5.20
2023-03-19T15:09:55.827Z,3.63
2023-03-19T15:12:44.614Z,4.10
2023-03-19T15:15:30.494Z,4.20
2023-03-19T15:18:04.224Z,3.25
2023-03-19T15:20:37.397Z,4.88
2023-03-19T15:23:13.528Z,4.13
2023-03-19T15:25:47.471Z,5.75
2023-03-19T15:28:16.020Z,5.85
2023-03-19T15:30:54.874Z,5.90
2023-03-19T15:33:40.047Z,5.57
2023-03-19T15:36:09.998Z,4.28
2023-03-19T15:38:39.802Z,4.35
2023-03-19T15:41:08.432Z,4.00
2023-03-19T15:43:38.386Z,4.60
2023-03-19T15:46:07.237Z,5.25
2023-03-19T15:48:39.215Z,6.47
2023-03-19T15:51:07.362Z,7.78
2023-03-19T15:53:36.132Z,8.45
2023-03-19T15:56:04.687Z,8.57
2023-03-19T15:58:37.444Z,10.45
2023-03-19T16:01:07.623Z,12.23
2023-03-19T16:03:38.024Z,12.30
2023-03-19T16:06:07.477Z,13.00
2023-03-19T16:08:34.017Z,13.15
2023-03-19T16:11:14.824Z,13.77
2023-03-19T16:13:46.210Z,13.05
2023-03-19T16:16:19.185Z,12.35
2023-03-19T16:18:50.142Z,11.00
2023-03-19T16:21:19.659Z,11.48
2023-03-19T16:23:52.055Z,10.82
2023-03-19T16:26:24.921Z,10.85
2023-03-19T16:29:17.657Z,10.65
2023-03-19T16:31:46.134Z,11.10
2023-03-19T16:34:24.738Z,10.48
2023-03-19T16:36:51.642Z,11.63
2023-03-19T16:39:25.992Z,11.82
2023-03-19T16:42:14.676Z,11.75
2023-03-19T16:44:43.184Z,12.65
2023-03-19T16:47:10.893Z,12.60
2023-03-19T16:49:38.718Z,13.70
2023-03-19T16:52:06.317Z,14.50
2023-03-19T16:54:32.871Z,15.75
2023-03-19T16:57:00.124Z,16.17
2023-03-19T16:59:30.917Z,16.92
2023-03-19T17:01:58.049Z,16.55
2023-03-19T17:04:24.854Z,17.17
2023-03-19T17:07:00.529Z,16.50
2023-03-19T17:09:27.809Z,15.05
2023-03-19T17:11:58.021Z,15.27
2023-03-19T17:14:25.779Z,14.50
2023-03-19T17:16:54.484Z,13.85
2023-03-19T17:19:26.289Z,15.25
2023-03-19T17:21:58.825Z,14.75
2023-03-19T17:24:32.387Z,13.25
2023-03-19T17:29:36.824Z,12.98
2023-03-19T17:32:18.211Z,12.88
2023-03-19T17:34:44.800Z,12.90
2023-03-19T17:37:13.759Z,12.25
2023-03-19T17:39:40.305Z,12.93
2023-03-19T17:42:17.199Z,11.85
2023-03-19T17:44:43.732Z,12.95
2023-03-19T17:47:10.556Z,11.88
2023-03-19T17:49:37.965Z,11.27
2023-03-19T17:52:13.853Z,10.50
2023-03-19T17:54:40.345Z,12.77
2023-03-19T17:57:10.879Z,10.45
2023-03-19T17:59:37.350Z,10.15
2023-03-19T18:02:25.046Z,8.85
2023-03-19T18:04:52.700Z,9.50
2023-03-19T18:07:20.625Z,9.55
2023-03-19T18:09:48.205Z,9.00
2023-03-19T18:12:14.700Z,10.77
2023-03-19T18:14:41.268Z,9.70
2023-03-19T18:17:14.192Z,10.32
2023-03-19T18:19:40.828Z,9.05
2023-03-19T18:22:12.837Z,9.20
2023-03-19T18:24:40.701Z,9.32
2023-03-19T18:27:07.222Z,10.15
2023-03-19T18:29:33.676Z,10.32
2023-03-19T18:32:04.710Z,11.80
2023-03-19T18:34:31.621Z,10.63
2023-03-19T18:36:59.131Z,8.90
2023-03-19T18:39:25.633Z,10.45
2023-03-19T18:41:53.443Z,10.32
2023-03-19T18:44:19.945Z,11.52
2023-03-19T18:46:46.664Z,9.95
2023-03-19T18:49:21.591Z,8.13
2023-03-19T18:52:01.458Z,8.20
2023-03-19T18:54:28.464Z,9.05
2023-03-19T18:56:57.544Z,8.45
2023-03-19T18:59:26.961Z,9.00
2023-03-19T19:01:58.304Z,7.95
2023-03-19T19:04:24.968Z,7.07
2023-03-19T19:06:51.890Z,6.55
2023-03-19T19:09:18.366Z,6.65
2023-03-19T19:11:47.569Z,6.43
2023-03-19T19:14:20.004Z,6.82
2023-03-19T19:16:47.591Z,5.65
2023-03-19T19:19:16.796Z,5.43
2023-03-19T19:21:43.474Z,5.20
2023-03-19T19:24:09.993Z,4.40
2023-03-19T19:26:36.605Z,5.07
2023-03-19T19:29:04.289Z,5.07
2023-03-19T19:31:33.780Z,4.95
2023-03-19T19:34:00.288Z,5.20
2023-03-19T19:36:27.579Z,4.88
2023-03-19T19:38:54.440Z,4.63
2023-03-19T19:41:24.144Z,4.50
2023-03-19T19:43:52.332Z,4.88
2023-03-19T19:46:20.678Z,5.03
2023-03-19T19:48:49.060Z,4.82
2023-03-19T19:51:19.136Z,4.90
2023-03-19T19:53:45.595Z,5.55
2023-03-19T19:56:15.465Z,5.18
2023-03-19T19:58:43.324Z,5.05
2023-03-19T20:01:15.056Z,5.05
2023-03-19T20:03:42.190Z,5.15
2023-03-19T20:06:12.909Z,5.57
2023-03-19T20:08:40.473Z,4.97
2023-03-19T20:11:15.849Z,5.85
2023-03-19T20:13:43.530Z,4.93
2023-03-19T20:16:11.702Z,4.53
2023-03-19T20:18:38.719Z,4.43
2023-03-19T20:21:05.540Z,5.18
2023-03-19T20:23:33.385Z,4.68
2023-03-19T20:26:00.962Z,4.75
2023-03-19T20:28:30.110Z,4.05
2023-03-19T20:30:56.665Z,4.53
2023-03-19T20:33:23.178Z,4.95
2023-03-19T20:35:50.304Z,4.38
2023-03-19T20:38:17.088Z,4.65
2023-03-19T20:40:47.299Z,4.55
2023-03-19T20:43:23.062Z,4.72
2023-03-19T20:45:49.985Z,5.60
2023-03-19T20:48:16.532Z,5.00
2023-03-19T20:50:43.881Z,4.55
2023-03-19T20:53:10.658Z,5.22
2023-03-19T20:55:39.007Z,5.00
2023-03-19T20:58:14.521Z,4.35
2023-03-19T21:00:41.074Z,5.13
2023-03-19T21:03:16.090Z,5.22
2023-03-19T21:05:42.708Z,4.82
2023-03-19T21:08:14.393Z,5.65
2023-03-19T21:10:43.241Z,5.50
2023-03-19T21:13:13.618Z,5.22
2023-03-19T21:15:40.290Z,5.57
2023-03-19T21:18:06.771Z,5.63
2023-03-19T21:20:33.620Z,5.55
2023-03-19T21:23:10.434Z,5.40
2023-03-19T21:25:37.183Z,5.38
2023-03-19T21:28:11.319Z,5.03
2023-03-19T21:30:42.479Z,5.47
2023-03-19T21:33:20.474Z,5.18
2023-03-19T21:35:46.996Z,5.45
2023-03-19T21:38:13.474Z,5.30
2023-03-19T21:40:40.030Z,6.15
2023-03-19T21:43:06.645Z,6.00
2023-03-19T21:45:35.171Z,5.55
2023-03-19T21:48:23.082Z,5.28
2023-03-19T21:50:50.121Z,5.18
2023-03-19T21:53:17.057Z,5.30
2023-03-19T21:55:43.612Z,4.85
2023-03-19T21:58:11.955Z,4.95
2023-03-19T22:04:05.400Z,5.47
2023-03-19T22:06:31.967Z,5.90
2023-03-19T22:08:58.859Z,5.47
2023-03-19T22:11:27.445Z,5.10
2023-03-19T22:13:54.383Z,4.93
2023-03-19T22:16:23.519Z,5.32
2023-03-19T22:18:51.206Z,5.28
2023-03-19T22:21:22.004Z,5.35
2023-03-19T22:23:48.678Z,5.95
2023-03-19T22:26:27.373Z,5.90
2023-03-19T22:28:54.457Z,5.72
2023-03-19T22:31:21.121Z,5.25
2023-03-19T22:33:47.781Z,5.80
2023-03-19T22:36:14.975Z,5.70
2023-03-19T22:38:43.103Z,5.80
2023-03-19T22:41:15.392Z,5.97
2023-03-19T22:43:42.386Z,5.93
2023-03-19T22:46:11.811Z,5.40
2023-03-19T22:48:39.128Z,6.00
2023-03-19T22:51:06.047Z,5.40
2023-03-19T22:53:34.425Z,5.80
2023-03-19T22:56:03.832Z,5.15
2023-03-19T22:58:30.660Z,5.07
2023-03-19T23:00:57.339Z,4.85
2023-03-19T23:03:26.047Z,5.43
2023-03-19T23:05:54.302Z,5.90
2023-03-19T23:08:20.819Z,6.03
2023-03-19T23:10:47.668Z,5.60
2023-03-19T23:13:15.532Z,5.40
2023-03-19T23:15:42.750Z,6.40
2023-03-19T23:18:17.276Z,5.53
2023-03-19T23:20:43.887Z,5.80
2023-03-19T23:23:12.738Z,4.78
2023-03-19T23:25:39.652Z,5.15
2023-03-19T23:28:06.157Z,5.63
2023-03-19T23:30:34.048Z,6.03
2023-03-19T23:33:02.222Z,4.85
2023-03-19T23:35:30.495Z,4.90
2023-03-19T23:37:57.749Z,5.30
2023-03-19T23:40:26.759Z,5.45
2023-03-19T23:42:55.020Z,5.50
2023-03-19T23:45:30.336Z,5.22
2023-03-19T23:48:00.059Z,5.13
2023-03-19T23:50:26.685Z,5.80
2023-03-19T23:52:53.519Z,5.68
2023-03-19T23:55:20.281Z,5.55
2023-03-19T23:57:47.627Z,4.93
